createdAt,value
2018-09-21T00:00:47.033Z,100055.02
2018-09-21T00:03:12.029Z,100045.11
2018-09-21T00:05:35.908Z,100045.12
2018-09-21T00:07:59.832Z,100042.36
2018-09-21T00:10:24.777Z,100039.35
2018-09-21T00:12:48.635Z,100029.03
2018-09-21T00:15:12.580Z,100028.23
2018-09-21T00:17:36.452Z,100026.33
2018-09-21T00:20:00.311Z,100022.56
2018-09-21T00:22:24.219Z,100023.52
2018-09-21T00:24:48.079Z,100024.02
2018-09-21T00:27:12.047Z,100009.11
2018-09-21T00:29:35.921Z,100013.45
2018-09-21T00:31:59.879Z,100012.63
2018-09-21T00:34:23.756Z,100004.39
2018-09-21T00:36:47.658Z,100010.75
2018-09-21T00:39:11.904Z,100004.97
2018-09-21T00:41:35.838Z,100002.59
2018-09-21T00:43:59.802Z,99994.70
2018-09-21T00:46:23.680Z,99995.83
2018-09-21T00:48:47.549Z,99995.43
2018-09-21T00:51:11.429Z,99986.58
2018-09-21T00:53:35.310Z,99988.48
2018-09-21T00:55:59.339Z,99978.45
2018-09-21T00:58:23.217Z,99986.95
2018-09-21T01:00:47.096Z,99985.59
2018-09-21T01:03:10.968Z,99983.00
2018-09-21T01:05:34.860Z,99982.48
2018-09-21T01:07:58.857Z,99982.12
2018-09-21T01:10:22.742Z,99976.93
2018-09-21T01:12:46.618Z,99972.03
2018-09-21T01:15:10.603Z,99968.75
2018-09-21T01:17:34.446Z,99960.31
2018-09-21T01:19:58.339Z,99962.25
2018-09-21T01:22:22.318Z,99958.08
2018-09-21T01:24:46.183Z,99964.66
2018-09-21T01:27:14.560Z,99953.66
2018-09-21T01:29:38.454Z,99953.96
2018-09-21T01:32:02.290Z,99950.52
2018-09-21T01:34:26.274Z,99946.47
2018-09-21T01:36:50.153Z,99946.00
2018-09-21T01:39:13.987Z,99952.66
2018-09-21T01:41:38.012Z,99947.83
2018-09-21T01:44:01.884Z,99943.64
2018-09-21T01:46:25.753Z,99945.27
2018-09-21T01:48:49.596Z,99945.19
2018-09-21T01:51:13.449Z,99935.70
2018-09-21T01:53:37.316Z,99937.53
2018-09-21T01:56:01.170Z,99941.63
2018-09-21T01:58:25.065Z,99926.72
2018-09-21T02:00:48.925Z,99934.74
2018-09-21T02:03:12.794Z,99924.48
2018-09-21T02:05:36.682Z,99928.80
2018-09-21T02:08:00.624Z,99923.79
2018-09-21T02:10:24.533Z,99917.83
2018-09-21T02:12:48.459Z,99922.56
2018-09-21T02:15:12.311Z,99909.72
2018-09-21T02:17:36.227Z,99907.84
2018-09-21T02:20:00.067Z,99904.06
2018-09-21T02:22:23.909Z,99898.19
2018-09-21T02:24:47.741Z,99897.00
2018-09-21T02:27:11.659Z,99897.30
2018-09-21T02:29:35.474Z,99897.16
2018-09-21T02:31:59.351Z,99888.89
2018-09-21T02:34:23.209Z,99880.92
2018-09-21T02:36:47.158Z,99873.12
2018-09-21T02:39:11.133Z,99881.02
2018-09-21T02:41:35.175Z,99879.11
2018-09-21T02:43:59.007Z,99868.30
2018-09-21T02:46:22.900Z,99864.58
2018-09-21T02:48:46.784Z,99864.42
2018-09-21T02:51:10.647Z,99856.98
2018-09-21T02:53:34.477Z,99848.13
2018-09-21T02:55:58.308Z,99850.05
2018-09-21T02:58:22.498Z,99846.50
2018-09-21T03:00:46.450Z,99844.61
2018-09-21T03:03:10.307Z,99840.89
2018-09-21T03:05:34.169Z,99835.28
2018-09-21T03:07:58.025Z,99831.04
2018-09-21T03:10:22.132Z,99825.52
2018-09-21T03:12:46.044Z,99822.92
2018-09-21T03:15:09.870Z,99817.99
2018-09-21T03:17:33.749Z,99806.38
2018-09-21T03:19:57.601Z,99807.20
2018-09-21T03:22:21.569Z,99808.55
2018-09-21T03:24:45.495Z,99806.15
2018-09-21T03:27:09.367Z,99799.80
2018-09-21T03:29:33.259Z,99801.72
2018-09-21T03:31:57.126Z,99793.62
2018-09-21T03:34:21.097Z,99790.40
2018-09-21T03:36:44.973Z,99784.88
2018-09-21T03:39:09.588Z,99780.79
2018-09-21T03:41:33.472Z,99777.67
2018-09-21T03:43:57.320Z,99772.56
2018-09-21T03:46:21.315Z,99769.70
2018-09-21T03:48:45.222Z,99764.47
2018-09-21T03:51:09.092Z,99768.66
2018-09-21T03:53:32.990Z,99757.34
2018-09-21T03:55:56.932Z,99757.83
2018-09-21T03:58:20.924Z,99745.92
2018-09-21T04:00:44.786Z,99742.00
2018-09-21T04:03:08.652Z,99744.88
2018-09-21T04:05:32.544Z,99732.10
2018-09-21T04:07:56.416Z,99734.52
2018-09-21T04:10:20.305Z,99720.44
2018-09-21T04:12:44.167Z,99720.80
2018-09-21T04:15:08.621Z,99715.08
2018-09-21T04:17:32.484Z,99710.73
2018-09-21T04:19:56.402Z,99710.02
2018-09-21T04:22:20.315Z,99706.17
2018-09-21T04:24:44.179Z,99701.89
2018-09-21T04:27:08.142Z,99701.41
2018-09-21T04:29:32.031Z,99702.35
2018-09-21T04:31:55.934Z,99690.57
2018-09-21T04:34:19.849Z,99685.06
2018-09-21T04:36:43.730Z,99683.45
2018-09-21T04:39:09.517Z,99674.52
2018-09-21T04:41:33.352Z,99668.55
2018-09-21T04:43:57.270Z,99662.09
2018-09-21T04:46:21.276Z,99665.61
2018-09-21T04:48:45.178Z,99672.80
2018-09-21T04:51:09.112Z,99662.22
2018-09-21T04:53:33.039Z,99656.91
2018-09-21T04:55:56.953Z,99655.59
2018-09-21T04:58:20.921Z,99661.55
2018-09-21T05:00:44.795Z,99652.08
2018-09-21T05:03:08.751Z,99647.52
2018-09-21T05:05:33.110Z,99640.78
2018-09-21T05:07:57.011Z,99641.97
2018-09-21T05:10:20.991Z,99632.24
2018-09-21T05:12:44.861Z,99627.87
2018-09-21T05:15:08.729Z,99625.19
2018-09-21T05:17:32.611Z,99622.48
2018-09-21T05:19:56.565Z,99618.73
2018-09-21T05:22:20.469Z,99613.00
2018-09-21T05:24:44.400Z,99622.51
2018-09-21T05:27:08.375Z,99627.17
2018-09-21T05:29:32.291Z,99617.38
2018-09-21T05:31:56.177Z,99615.92
2018-09-21T05:34:20.141Z,99609.65
2018-09-21T05:36:43.978Z,99594.20
2018-09-21T05:39:10.074Z,99583.66
2018-09-21T05:41:33.943Z,99574.48
2018-09-21T05:44:04.351Z,99573.80
2018-09-21T05:46:28.246Z,99559.50
2018-09-21T05:48:52.118Z,99565.78
2018-09-21T05:51:16.074Z,99558.59
2018-09-21T05:53:39.942Z,99556.41
2018-09-21T05:56:03.869Z,99557.25
2018-09-21T05:58:28.041Z,99567.78
2018-09-21T06:00:51.932Z,99555.09
2018-09-21T06:03:15.911Z,99548.05
2018-09-21T06:05:39.803Z,99545.94
2018-09-21T06:08:03.719Z,99547.89
2018-09-21T06:10:27.801Z,99543.87
2018-09-21T06:12:51.645Z,99539.17
2018-09-21T06:15:15.683Z,99542.89
2018-09-21T06:17:39.536Z,99543.48
2018-09-21T06:20:11.977Z,99526.58
2018-09-21T06:22:27.360Z,99534.45
2018-09-21T06:24:51.209Z,99529.89
2018-09-21T06:27:15.044Z,99533.46
2018-09-21T06:29:39.050Z,99526.92
2018-09-21T06:32:02.968Z,99524.39
2018-09-21T06:34:26.830Z,99524.97
2018-09-21T06:36:50.712Z,99515.35
2018-09-21T06:39:14.604Z,99511.59
2018-09-21T06:41:38.733Z,99516.69
2018-09-21T06:44:02.581Z,99515.52
2018-09-21T06:46:26.481Z,99505.03
2018-09-21T06:48:50.374Z,99503.20
2018-09-21T06:51:14.520Z,99498.06
2018-09-21T06:53:38.440Z,99499.82
2018-09-21T06:56:02.318Z,99497.08
2018-09-21T06:58:26.217Z,99508.31
2018-09-21T07:00:50.149Z,99487.61
2018-09-21T07:03:14.005Z,99487.77
2018-09-21T07:05:37.876Z,99481.86
2018-09-21T07:08:01.734Z,99473.44
2018-09-21T07:10:25.918Z,99477.56
2018-09-21T07:12:49.796Z,99477.75
2018-09-21T07:15:13.690Z,99478.84
2018-09-21T07:17:37.599Z,99466.63
2018-09-21T07:20:01.478Z,99460.87
2018-09-21T07:22:25.489Z,99466.56
2018-09-21T07:24:49.345Z,99459.44
2018-09-21T07:27:13.202Z,99467.97
2018-09-21T07:29:37.115Z,99457.44
2018-09-21T07:32:01.078Z,99450.83
2018-09-21T07:34:25.045Z,99449.34
2018-09-21T07:36:48.900Z,99444.29
2018-09-21T07:39:12.740Z,99445.10
2018-09-21T07:41:36.730Z,99439.38
2018-09-21T07:44:00.736Z,99440.23
2018-09-21T07:46:24.655Z,99439.23
2018-09-21T07:48:48.568Z,99417.66
2018-09-21T07:51:12.398Z,99429.89
2018-09-21T07:53:36.269Z,99409.43
2018-09-21T07:56:00.222Z,99415.14
2018-09-21T07:58:24.107Z,99420.77
2018-09-21T08:00:48.021Z,99422.36
2018-09-21T08:03:11.863Z,99423.14
2018-09-21T08:05:35.936Z,99424.34
2018-09-21T08:08:00.089Z,99414.94
2018-09-21T08:10:23.920Z,99419.79
2018-09-21T08:12:47.837Z,99407.39
2018-09-21T08:15:11.710Z,99415.16
2018-09-21T08:17:35.556Z,99408.52
2018-09-21T08:20:00.038Z,99405.79
2018-09-21T08:22:23.931Z,99409.95
2018-09-21T08:24:47.820Z,99397.80
2018-09-21T08:27:14.189Z,99399.52
2018-09-21T08:29:38.095Z,99396.69
2018-09-21T08:32:02.006Z,99398.88
2018-09-21T08:34:25.898Z,99399.99
2018-09-21T08:36:49.810Z,99385.09
2018-09-21T08:39:13.770Z,99394.03
2018-09-21T08:41:38.563Z,99400.09
2018-09-21T08:44:02.496Z,99398.39
2018-09-21T08:46:26.471Z,99361.13
2018-09-21T08:48:50.570Z,99408.70
2018-09-21T08:51:14.665Z,99385.48
2018-09-21T08:53:38.520Z,99374.00
2018-09-21T08:56:02.385Z,99362.91
2018-09-21T08:58:26.297Z,99373.34
2018-09-21T09:00:50.421Z,99370.79
2018-09-21T09:03:14.392Z,99364.55
2018-09-21T09:05:38.293Z,99375.92
2018-09-21T09:08:02.194Z,99371.55
2018-09-21T09:10:26.272Z,99379.61
2018-09-21T09:12:50.456Z,99378.84
2018-09-21T09:15:14.302Z,99375.44
2018-09-21T09:17:38.184Z,99366.16
2018-09-21T09:20:02.113Z,99371.73
2018-09-21T09:22:26.070Z,99378.32
2018-09-21T09:24:49.985Z,99366.91
2018-09-21T09:27:13.937Z,99363.38
2018-09-21T09:29:37.821Z,99357.62
2018-09-21T09:32:01.759Z,99349.64
2018-09-21T09:34:25.691Z,99357.62
2018-09-21T09:36:49.588Z,99350.22
2018-09-21T09:39:14.218Z,99346.19
2018-09-21T09:41:38.061Z,99352.48
2018-09-21T09:44:02.251Z,99352.59
2018-09-21T09:46:26.188Z,99352.70
2018-09-21T09:48:50.134Z,99357.70
2018-09-21T09:51:13.971Z,99356.19
2018-09-21T09:53:37.848Z,99346.06
2018-09-21T09:56:01.731Z,99351.54
2018-09-21T09:58:25.576Z,99355.25
2018-09-21T10:00:53.602Z,99358.94
2018-09-21T10:03:17.521Z,99349.64
2018-09-21T10:05:44.439Z,99339.97
2018-09-21T10:08:08.344Z,99334.86
2018-09-21T10:10:32.233Z,99321.00
2018-09-21T10:12:56.259Z,99327.22
2018-09-21T10:15:20.261Z,99334.17
2018-09-21T10:17:44.161Z,99329.53
2018-09-21T10:20:08.111Z,99307.56
2018-09-21T10:22:32.020Z,99298.66
2018-09-21T10:24:55.977Z,99290.15
2018-09-21T10:27:19.943Z,99289.66
2018-09-21T10:29:43.861Z,99283.38
2018-09-21T10:32:07.789Z,99302.22
2018-09-21T10:34:31.759Z,99288.50
2018-09-21T10:36:55.729Z,99281.70
2018-09-21T10:39:19.723Z,99286.77
2018-09-21T10:41:43.683Z,99277.14
2018-09-21T10:44:07.805Z,99273.73
2018-09-21T10:46:31.664Z,99280.06
2018-09-21T10:48:55.565Z,99270.33
2018-09-21T10:51:19.447Z,99263.16
2018-09-21T10:53:43.337Z,99254.07
2018-09-21T10:56:07.217Z,99247.98
2018-09-21T10:58:31.095Z,99240.52
2018-09-21T11:00:54.997Z,99234.42
2018-09-21T11:03:18.866Z,99240.95
2018-09-21T11:05:42.769Z,99236.81
2018-09-21T11:08:06.733Z,99246.19
2018-09-21T11:10:30.615Z,99241.77
2018-09-21T11:12:54.538Z,99241.19
2018-09-21T11:15:18.506Z,99240.95
2018-09-21T11:17:42.493Z,99250.25
2018-09-21T11:20:06.402Z,99238.92
2018-09-21T11:22:30.283Z,99227.92
2018-09-21T11:24:54.162Z,99223.13
2018-09-21T11:27:18.168Z,99223.27
2018-09-21T11:29:42.051Z,99231.35
2018-09-21T11:32:05.925Z,99228.33
2018-09-21T11:34:29.818Z,99219.18
2018-09-21T11:36:53.731Z,99225.18
2018-09-21T11:39:17.766Z,99223.66
2018-09-21T11:41:41.674Z,99226.39
2018-09-21T11:44:05.554Z,99231.62
2018-09-21T11:46:29.478Z,99259.54
2018-09-21T11:48:53.355Z,99299.37
2018-09-21T11:51:17.381Z,99370.46
2018-09-21T11:53:41.271Z,99343.72
2018-09-21T11:56:05.186Z,99377.58
2018-09-21T11:58:29.122Z,99413.98
2018-09-21T12:00:52.982Z,99435.27
2018-09-21T12:03:16.954Z,99449.05
2018-09-21T12:05:40.838Z,99452.92
2018-09-21T12:08:04.724Z,99475.78
2018-09-21T12:10:28.666Z,99472.25
2018-09-21T12:12:52.536Z,99507.10
2018-09-21T12:15:16.547Z,99516.69
2018-09-21T12:17:40.575Z,99492.52
2018-09-21T12:20:04.504Z,99522.70
2018-09-21T12:22:28.400Z,99522.58
2018-09-21T12:24:52.277Z,99543.30
2018-09-21T12:27:16.189Z,99544.23
2018-09-21T12:29:40.067Z,99555.19
2018-09-21T12:32:04.037Z,99539.58
2018-09-21T12:34:28.033Z,99556.22
2018-09-21T12:36:51.941Z,99567.28
2018-09-21T12:39:15.918Z,99580.52
2018-09-21T12:41:39.776Z,99576.50
2018-09-21T12:44:04.486Z,99590.37
2018-09-21T12:46:29.681Z,99622.81
2018-09-21T12:48:58.803Z,99629.01
2018-09-21T12:51:22.730Z,99632.17
2018-09-21T12:53:46.617Z,99633.80
2018-09-21T12:56:10.522Z,99650.89
2018-09-21T12:58:34.522Z,99652.77
2018-09-21T13:00:58.328Z,99634.87
2018-09-21T13:03:25.587Z,99639.48
2018-09-21T13:05:53.626Z,99637.41
2018-09-21T13:08:17.499Z,99637.13
2018-09-21T13:10:41.404Z,99637.15
2018-09-21T13:13:05.285Z,99649.85
2018-09-21T13:15:29.208Z,99642.33
2018-09-21T13:17:53.089Z,99638.41
2018-09-21T13:20:17.050Z,99630.59
2018-09-21T13:22:40.929Z,99626.22
2018-09-21T13:25:04.828Z,99627.98
2018-09-21T13:27:28.746Z,99615.69
2018-09-21T13:29:52.605Z,99632.05
2018-09-21T13:32:16.534Z,99625.16
2018-09-21T13:34:40.383Z,99634.87
2018-09-21T13:37:04.294Z,99650.19
2018-09-21T13:39:28.229Z,99661.73
2018-09-21T13:41:52.153Z,99672.86
2018-09-21T13:44:16.038Z,99651.23
2018-09-21T13:46:39.924Z,99650.70
2018-09-21T13:49:03.809Z,99635.65
2018-09-21T13:51:27.757Z,99679.45
2018-09-21T13:53:51.672Z,99679.08
2018-09-21T13:56:15.603Z,99670.17
2018-09-21T13:58:39.514Z,99688.22
2018-09-21T14:01:03.400Z,99682.66
2018-09-21T14:03:27.297Z,99688.92
2018-09-21T14:05:51.179Z,99706.02
2018-09-21T14:08:15.093Z,99705.24
2018-09-21T14:10:39.013Z,99703.41
2018-09-21T14:13:02.952Z,99683.48
2018-09-21T14:15:26.978Z,99652.80
2018-09-21T14:17:50.845Z,99652.81
2018-09-21T14:20:14.751Z,99649.63
2018-09-21T14:22:38.710Z,99657.83
2018-09-21T14:25:02.653Z,99663.23
2018-09-21T14:27:26.554Z,99682.55
2018-09-21T14:29:50.612Z,99681.77
2018-09-21T14:32:14.591Z,99675.14
2018-09-21T14:34:38.461Z,99677.06
2018-09-21T14:37:02.344Z,99685.22
2018-09-21T14:39:26.275Z,99684.70
2018-09-21T14:41:50.188Z,99702.13
2018-09-21T14:44:14.065Z,99704.38
2018-09-21T14:46:38.221Z,99715.66
2018-09-21T14:49:02.271Z,99730.61
2018-09-21T14:51:26.176Z,99743.14
2018-09-21T14:53:50.091Z,99739.36
2018-09-21T14:56:14.044Z,99752.50
2018-09-21T14:58:37.940Z,99753.90
2018-09-21T15:01:02.009Z,99774.91
2018-09-21T15:03:25.983Z,99784.09
2018-09-21T15:05:49.896Z,99792.48
2018-09-21T15:08:13.805Z,99819.52
2018-09-21T15:10:37.757Z,99819.24
2018-09-21T15:13:01.692Z,99814.69
2018-09-21T15:15:25.602Z,99800.42
2018-09-21T15:17:49.548Z,99772.89
2018-09-21T15:20:13.519Z,99742.51
2018-09-21T15:22:37.505Z,99730.61
2018-09-21T15:25:01.446Z,99762.95
2018-09-21T15:27:25.321Z,99756.34
2018-09-21T15:29:49.223Z,99765.97
2018-09-21T15:32:13.805Z,99762.08
2018-09-21T15:34:37.735Z,99770.83
2018-09-21T15:37:01.687Z,99772.19
2018-09-21T15:39:25.602Z,99769.14
2018-09-21T15:41:49.521Z,99765.86
2018-09-21T15:44:13.403Z,99767.62
2018-09-21T15:46:37.387Z,99770.29
2018-09-21T15:49:02.043Z,99764.06
2018-09-21T15:51:26.069Z,99753.60
2018-09-21T15:53:50.014Z,99743.46
2018-09-21T15:56:13.945Z,99754.41
2018-09-21T15:58:37.843Z,99759.11
2018-09-21T16:01:01.764Z,99767.77
2018-09-21T16:03:25.793Z,99776.91
2018-09-21T16:05:49.755Z,99780.39
2018-09-21T16:08:13.680Z,99781.68
2018-09-21T16:10:37.632Z,99793.88
2018-09-21T16:13:01.605Z,99783.62
2018-09-21T16:15:25.485Z,99790.06
2018-09-21T16:17:49.418Z,99786.94
2018-09-21T16:20:13.376Z,99775.23
2018-09-21T16:22:37.262Z,99790.47
2018-09-21T16:25:01.190Z,99789.64
2018-09-21T16:27:25.138Z,99788.31
2018-09-21T16:29:49.024Z,99785.05
2018-09-21T16:32:12.922Z,99781.00
2018-09-21T16:34:36.814Z,99789.53
2018-09-21T16:37:00.718Z,99790.66
2018-09-21T16:39:24.654Z,99794.95
2018-09-21T16:41:48.587Z,99798.34
2018-09-21T16:44:12.679Z,99792.59
2018-09-21T16:46:36.834Z,99792.41
2018-09-21T16:49:00.779Z,99790.81
2018-09-21T16:51:24.759Z,99791.02
2018-09-21T16:53:48.644Z,99790.66
2018-09-21T16:56:12.583Z,99797.03
2018-09-21T16:58:36.572Z,99802.83
2018-09-21T17:01:00.487Z,99802.84
2018-09-21T17:03:24.552Z,99806.06
2018-09-21T17:05:48.483Z,99811.81
2018-09-21T17:08:12.441Z,99819.78
2018-09-21T17:10:36.338Z,99835.81
2018-09-21T17:13:00.262Z,99828.75
2018-09-21T17:15:24.210Z,99845.38
2018-09-21T17:17:48.091Z,99848.69
2018-09-21T17:20:12.079Z,99848.02
2018-09-21T17:22:35.986Z,99857.69
2018-09-21T17:24:59.913Z,99853.30
2018-09-21T17:27:23.809Z,99860.47
2018-09-21T17:29:47.696Z,99862.44
2018-09-21T17:32:11.761Z,99881.05
2018-09-21T17:34:35.621Z,99889.16
2018-09-21T17:36:59.709Z,99894.83
2018-09-21T17:39:23.531Z,99893.30
2018-09-21T17:41:47.414Z,99904.38
2018-09-21T17:44:11.335Z,99902.63
2018-09-21T17:46:35.258Z,99906.56
2018-09-21T17:48:59.169Z,99909.23
2018-09-21T17:51:23.041Z,99911.59
2018-09-21T17:53:46.913Z,99915.02
2018-09-21T17:56:10.890Z,99925.17
2018-09-21T17:58:34.792Z,99933.98
2018-09-21T18:00:58.744Z,99936.08
2018-09-21T18:03:22.685Z,99945.84
2018-09-21T18:05:46.564Z,99953.33
2018-09-21T18:08:10.479Z,99964.14
2018-09-21T18:10:34.374Z,99960.44
2018-09-21T18:12:58.311Z,99970.08
2018-09-21T18:15:22.205Z,99970.33
2018-09-21T18:17:46.129Z,99973.73
2018-09-21T18:20:10.032Z,99978.77
2018-09-21T18:22:33.952Z,99982.83
2018-09-21T18:24:57.961Z,99989.69
2018-09-21T18:27:21.854Z,99988.63
2018-09-21T18:29:45.736Z,99995.52
2018-09-21T18:32:09.667Z,99998.12
2018-09-21T18:34:36.500Z,99999.80
2018-09-21T18:37:00.571Z,100008.97
2018-09-21T18:39:24.585Z,100013.61
2018-09-21T18:41:48.468Z,100010.81
2018-09-21T18:44:12.456Z,100030.40
2018-09-21T18:46:36.344Z,100029.67
2018-09-21T18:49:00.348Z,100032.91
2018-09-21T18:51:24.284Z,100030.67
2018-09-21T18:53:48.166Z,100034.13
2018-09-21T18:56:12.086Z,100037.80
2018-09-21T18:58:35.982Z,100044.25
2018-09-21T19:00:59.932Z,100049.12
2018-09-21T19:03:23.868Z,100047.61
2018-09-21T19:05:47.731Z,100051.70
2018-09-21T19:08:11.673Z,100049.97
2018-09-21T19:10:36.440Z,100063.92
2018-09-21T19:13:00.388Z,100071.19
2018-09-21T19:15:24.301Z,100069.52
2018-09-21T19:17:48.215Z,100070.36
2018-09-21T19:20:12.160Z,100074.33
2018-09-21T19:22:36.112Z,100076.81
2018-09-21T19:25:00.060Z,100082.52
2018-09-21T19:27:23.959Z,100088.61
2018-09-21T19:29:47.916Z,100097.02
2018-09-21T19:32:11.852Z,100093.02
2018-09-21T19:34:35.785Z,100089.49
2018-09-21T19:36:59.853Z,100079.50
2018-09-21T19:39:23.758Z,100087.58
2018-09-21T19:41:47.908Z,100089.14
2018-09-21T19:44:11.854Z,100095.66
2018-09-21T19:46:35.822Z,100100.75
2018-09-21T19:48:59.707Z,100105.14
2018-09-21T19:51:23.614Z,100101.77
2018-09-21T19:53:47.528Z,100110.88
2018-09-21T19:56:11.492Z,100100.04
2018-09-21T19:58:35.359Z,100109.78
2018-09-21T20:00:59.509Z,100115.69
2018-09-21T20:03:23.715Z,100113.69
2018-09-21T20:05:47.625Z,100109.80
2018-09-21T20:08:11.688Z,100116.42
2018-09-21T20:10:35.591Z,100133.34
2018-09-21T20:12:59.532Z,100164.67
2018-09-21T20:15:23.492Z,100175.55
2018-09-21T20:17:47.430Z,100178.61
2018-09-21T20:20:11.378Z,100208.08
2018-09-21T20:22:35.532Z,100219.74
2018-09-21T20:24:59.552Z,100233.05
2018-09-21T20:27:23.480Z,100247.51
2018-09-21T20:29:47.380Z,100237.11
2018-09-21T20:32:16.710Z,100208.85
2018-09-21T20:34:40.689Z,100221.46
2018-09-21T20:37:04.651Z,100235.37
2018-09-21T20:39:28.567Z,100240.80
2018-09-21T20:41:52.538Z,100263.13
2018-09-21T20:44:16.430Z,100264.06
2018-09-21T20:46:40.314Z,100265.88
2018-09-21T20:49:04.260Z,100240.55
2018-09-21T20:51:28.155Z,100250.41
2018-09-21T20:53:52.098Z,100250.99
2018-09-21T20:56:15.997Z,100244.63
2018-09-21T20:58:39.913Z,100249.62
2018-09-21T21:01:03.880Z,100239.95
2018-09-21T21:03:27.788Z,100238.55
2018-09-21T21:05:51.776Z,100244.27
2018-09-21T21:08:15.701Z,100246.01
2018-09-21T21:10:39.567Z,100243.19
2018-09-21T21:13:03.473Z,100253.78
2018-09-21T21:15:27.337Z,100265.74
2018-09-21T21:17:51.264Z,100256.98
2018-09-21T21:20:15.130Z,100258.63
2018-09-21T21:22:39.068Z,100255.56
2018-09-21T21:25:02.988Z,100263.48
2018-09-21T21:27:26.873Z,100260.38
2018-09-21T21:29:50.776Z,100261.94
2018-09-21T21:32:14.780Z,100264.94
2018-09-21T21:34:38.610Z,100257.27
2018-09-21T21:37:02.497Z,100251.58
2018-09-21T21:39:26.441Z,100255.03
2018-09-21T21:41:50.306Z,100265.63
2018-09-21T21:44:14.228Z,100264.05
2018-09-21T21:46:38.108Z,100273.35
2018-09-21T21:49:02.016Z,100273.78
2018-09-21T21:51:25.924Z,100265.73
2018-09-21T21:53:49.793Z,100286.24
2018-09-21T21:56:13.708Z,100279.87
2018-09-21T21:58:37.568Z,100288.30
2018-09-21T22:01:07.022Z,100300.33
2018-09-21T22:03:30.905Z,100296.66
2018-09-21T22:05:54.834Z,100299.40
2018-09-21T22:08:18.722Z,100288.71
2018-09-21T22:10:42.662Z,100290.81
2018-09-21T22:13:11.830Z,100298.21
2018-09-21T22:15:35.696Z,100296.23
2018-09-21T22:17:59.625Z,100309.95
2018-09-21T22:20:23.530Z,100298.79
2018-09-21T22:22:47.509Z,100296.98
2018-09-21T22:25:11.894Z,100310.88
2018-09-21T22:27:35.799Z,100304.09
2018-09-21T22:29:59.702Z,100297.87
2018-09-21T22:32:23.615Z,100293.16
2018-09-21T22:34:47.595Z,100306.53
2018-09-21T22:37:11.503Z,100292.73
2018-09-21T22:39:35.492Z,100290.77
2018-09-21T22:41:59.427Z,100291.02
2018-09-21T22:44:23.277Z,100289.70
2018-09-21T22:46:47.226Z,100293.34
2018-09-21T22:49:15.253Z,100297.98
2018-09-21T22:51:39.131Z,100293.05
2018-09-21T22:54:03.022Z,100311.02
2018-09-21T22:56:26.935Z,100299.17
2018-09-21T22:58:50.844Z,100300.55
2018-09-21T23:01:14.719Z,100323.70
2018-09-21T23:03:38.686Z,100310.80
2018-09-21T23:06:02.580Z,100311.27
2018-09-21T23:08:26.605Z,100314.14
2018-09-21T23:10:50.501Z,100302.17
2018-09-21T23:13:14.391Z,100309.80
2018-09-21T23:15:38.274Z,100307.81
2018-09-21T23:18:02.305Z,100292.44
2018-09-21T23:20:26.209Z,100296.73
2018-09-21T23:22:50.079Z,100299.61
2018-09-21T23:25:13.924Z,100302.45
2018-09-21T23:27:37.786Z,100299.44
2018-09-21T23:30:01.685Z,100299.02
2018-09-21T23:32:25.591Z,100283.46
2018-09-21T23:34:49.482Z,100289.91
2018-09-21T23:37:13.384Z,100289.81
2018-09-21T23:39:37.267Z,100293.05
2018-09-21T23:42:01.170Z,100291.23
2018-09-21T23:44:25.054Z,100287.16
2018-09-21T23:46:48.938Z,100294.80
2018-09-21T23:49:12.867Z,100313.23
2018-09-21T23:51:36.739Z,100294.12
2018-09-21T23:54:00.652Z,100302.82
2018-09-21T23:56:24.546Z,100302.20
2018-09-21T23:58:48.413Z,100312.28
